Terminal Aerodrome Forecast
Issued by NWS

Home | Current Version | Previous Version | Text Only | Print | Product List | Glossary On
Versions: 1 2 3 4 5 6 7 8 9 10 11 12 13 14 15 16 17
000
FTUS46 KSEW 161800 AAA
TAFPAE
TAF AMD
KPAE 161835Z 1619/1718 18014KT P6SM -RA FEW009 OVC015
     FM162100 18014KT P6SM SCT015 OVC028
      TEMPO 1621/1624 -RA BKN015 OVC028
     FM170000 17012KT P6SM FEW015 BKN030 OVC050
     FM170600 17010KT 5SM -RA BR FEW007 OVC018=

USA.gov is the U.S. government's official web portal to all federal, state and local government web resources and services.